< < Back
Terminal Aerodrome Forecast


Current Version              Previous Versions:   1  2  3  4  5  6  7  8  9  

Terminal Aerodrome Forecast

076
FTUS42 KFFC 262237 AAA
TAFMCN
TAF AMD
KMCN 262237Z 2623/2718 21009KT P6SM SCT050 BKN200
     FM270200 22007KT P6SM VCSH BKN050
     FM270400 23007KT 6SM -SHRA BR OVC020
     FM270700 24007KT 4SM SHRA BR OVC008
     FM271300 31010KT P6SM OVC015
     FM271600 31012G20KT P6SM SCT040=

Latest METAR

647
SAUS80 KWBC 270300
MTRMCN
METAR KMCN 270253Z AUTO 22005KT 10SM FEW049 18/16 A2983 RMK AO2 SLP097
T01830156 53013 TSNO


USA.gov is the U.S. government's official web portal to all federal, state and local government web resources and services.